createdAt,value
2023-03-11T00:02:01.325Z,19.65
2023-03-11T00:04:34.824Z,15.57
2023-03-11T00:07:12.786Z,17.37
2023-03-11T00:09:45.855Z,18.20
2023-03-11T00:12:19.096Z,21.82
2023-03-11T00:17:27.118Z,25.92
2023-03-11T00:20:00.464Z,22.82
2023-03-11T00:22:35.088Z,22.35
2023-03-11T00:25:09.321Z,24.45
2023-03-11T00:27:42.638Z,24.02
2023-03-11T00:30:16.819Z,23.25
2023-03-11T00:32:52.489Z,27.98
2023-03-11T00:35:30.406Z,25.82
2023-03-11T00:38:08.327Z,26.40
2023-03-11T00:40:42.258Z,23.27
2023-03-11T00:43:17.291Z,25.80
2023-03-11T00:45:50.738Z,26.93
2023-03-11T00:48:24.250Z,22.48
2023-03-11T00:50:58.249Z,19.92
2023-03-11T00:53:32.140Z,22.07
2023-03-11T00:56:14.049Z,19.85
2023-03-11T00:58:47.449Z,20.97
2023-03-11T01:01:23.039Z,23.42
2023-03-11T01:03:56.379Z,21.65
2023-03-11T01:06:43.134Z,18.82
2023-03-11T01:09:06.821Z,16.97
2023-03-11T01:11:40.948Z,17.95
2023-03-11T01:14:14.309Z,15.40
2023-03-11T01:16:47.961Z,14.45
2023-03-11T01:19:22.143Z,12.10
2023-03-11T01:21:55.341Z,14.80
2023-03-11T01:24:28.639Z,14.45
2023-03-11T01:27:02.678Z,10.88
2023-03-11T01:29:36.621Z,12.28
2023-03-11T01:32:11.606Z,10.70
2023-03-11T01:34:44.857Z,12.40
2023-03-11T01:37:20.579Z,10.50
2023-03-11T01:39:53.938Z,11.40
2023-03-11T01:42:27.187Z,9.05
2023-03-11T01:45:00.639Z,10.28
2023-03-11T01:47:40.156Z,11.85
2023-03-11T01:50:15.723Z,10.23
2023-03-11T01:52:49.079Z,9.73
2023-03-11T01:55:22.900Z,11.78
2023-03-11T01:57:56.889Z,9.03
2023-03-11T02:00:30.150Z,10.72
2023-03-11T02:03:14.502Z,11.48
2023-03-11T02:05:48.793Z,10.73
2023-03-11T02:08:22.486Z,10.00
2023-03-11T02:10:56.732Z,9.78
2023-03-11T02:13:30.752Z,10.63
2023-03-11T02:16:05.353Z,10.53
2023-03-11T02:18:39.710Z,8.95
2023-03-11T02:21:25.632Z,9.28
2023-03-11T02:24:28.235Z,9.13
2023-03-11T02:27:08.618Z,8.80
2023-03-11T02:29:43.952Z,8.40
2023-03-11T02:32:18.633Z,8.43
2023-03-11T02:34:52.018Z,8.65
2023-03-11T02:37:25.770Z,7.87
2023-03-11T02:40:23.294Z,7.55
2023-03-11T02:43:03.854Z,9.08
2023-03-11T02:45:40.419Z,7.58
2023-03-11T02:48:14.717Z,8.50
2023-03-11T02:50:49.002Z,7.40
2023-03-11T02:55:55.258Z,8.23
2023-03-11T02:58:28.418Z,7.80
2023-03-11T03:01:02.085Z,7.37
2023-03-11T03:03:35.775Z,7.40
2023-03-11T03:06:10.091Z,7.25
2023-03-11T03:08:44.085Z,7.05
2023-03-11T03:11:17.706Z,7.15
2023-03-11T03:13:52.328Z,7.42
2023-03-11T03:16:25.721Z,8.13
2023-03-11T03:18:59.450Z,6.03
2023-03-11T03:21:33.289Z,5.58
2023-03-11T03:24:07.417Z,5.90
2023-03-11T03:26:41.358Z,5.78
2023-03-11T03:29:14.637Z,6.95
2023-03-11T03:31:48.371Z,7.05
2023-03-11T03:34:21.935Z,5.95
2023-03-11T03:36:55.726Z,7.87
2023-03-11T03:39:30.657Z,8.73
2023-03-11T03:42:04.067Z,4.85
2023-03-11T03:44:39.174Z,6.87
2023-03-11T03:47:13.102Z,6.25
2023-03-11T03:49:46.433Z,5.67
2023-03-11T03:52:20.017Z,8.28
2023-03-11T03:54:53.928Z,5.80
2023-03-11T03:57:27.015Z,9.07
2023-03-11T04:00:00.615Z,5.90
2023-03-11T04:02:35.803Z,6.83
2023-03-11T04:05:10.444Z,9.68
2023-03-11T04:07:44.553Z,7.47
2023-03-11T04:10:18.492Z,7.42
2023-03-11T04:12:51.812Z,4.42
2023-03-11T04:15:26.638Z,4.87
2023-03-11T04:18:00.581Z,7.05
2023-03-11T04:20:34.670Z,6.85
2023-03-11T04:23:07.997Z,5.60
2023-03-11T04:25:41.426Z,5.83
2023-03-11T04:28:15.132Z,6.70
2023-03-11T04:33:22.249Z,6.17
2023-03-11T04:35:55.881Z,7.42
2023-03-11T04:38:29.478Z,7.83
2023-03-11T04:41:05.605Z,7.62
2023-03-11T04:43:42.069Z,6.85
2023-03-11T04:46:15.573Z,7.58
2023-03-11T04:48:48.983Z,8.00
2023-03-11T04:53:55.408Z,7.35
2023-03-11T04:56:29.255Z,12.25
2023-03-11T04:59:03.909Z,10.10
2023-03-11T05:01:37.931Z,10.05
2023-03-11T05:04:13.503Z,7.03
2023-03-11T05:06:49.924Z,8.15
2023-03-11T05:09:23.709Z,9.03
2023-03-11T05:11:57.501Z,12.73
2023-03-11T05:14:31.452Z,9.70
2023-03-11T05:17:05.627Z,9.38
2023-03-11T05:19:39.695Z,13.10
2023-03-11T05:22:15.094Z,11.25
2023-03-11T05:24:49.386Z,12.43
2023-03-11T05:27:23.824Z,8.50
2023-03-11T05:29:58.882Z,9.93
2023-03-11T05:32:33.246Z,9.63
2023-03-11T05:35:08.145Z,11.43
2023-03-11T05:37:42.035Z,9.70
2023-03-11T05:40:16.076Z,10.63
2023-03-11T05:42:49.944Z,16.37
2023-03-11T05:45:23.578Z,10.50
2023-03-11T05:47:57.448Z,11.25
2023-03-11T05:50:31.502Z,12.10
2023-03-11T05:53:05.609Z,13.85
2023-03-11T05:55:39.029Z,16.95
2023-03-11T05:58:14.051Z,12.47
2023-03-11T06:00:48.172Z,10.50
2023-03-11T06:05:56.169Z,11.83
2023-03-11T06:08:31.732Z,12.85
2023-03-11T06:11:09.019Z,13.35
2023-03-11T06:13:43.241Z,12.15
2023-03-11T06:16:18.127Z,15.68
2023-03-11T06:18:53.082Z,10.80
2023-03-11T06:21:27.757Z,11.20
2023-03-11T06:24:01.780Z,12.20
2023-03-11T06:26:35.899Z,10.88
2023-03-11T06:29:14.841Z,10.60
2023-03-11T06:31:48.683Z,9.48
2023-03-11T06:36:56.075Z,7.30
2023-03-11T06:39:29.348Z,7.10
2023-03-11T06:42:05.917Z,8.43
2023-03-11T06:44:40.184Z,8.85
2023-03-11T06:47:13.735Z,7.45
2023-03-11T06:49:47.425Z,9.83
2023-03-11T06:52:22.438Z,7.17
2023-03-11T06:54:55.683Z,8.63
2023-03-11T06:57:31.260Z,8.45
2023-03-11T07:00:08.265Z,11.40
2023-03-11T07:02:42.880Z,10.65
2023-03-11T07:05:17.554Z,13.60
2023-03-11T07:07:53.465Z,13.20
2023-03-11T07:10:27.041Z,9.73
2023-03-11T07:13:04.928Z,15.23
2023-03-11T07:15:38.572Z,15.23
2023-03-11T07:20:45.786Z,11.80
2023-03-11T07:23:20.653Z,11.57
2023-03-11T07:25:56.363Z,14.15
2023-03-11T07:28:30.800Z,14.00
2023-03-11T07:31:09.989Z,28.10
2023-03-11T07:33:44.978Z,14.83
2023-03-11T07:36:22.237Z,18.82
2023-03-11T07:39:04.618Z,13.40
2023-03-11T07:41:38.790Z,13.98
2023-03-11T07:44:18.284Z,16.10
2023-03-11T07:46:52.039Z,17.92
2023-03-11T07:49:25.448Z,18.95
2023-03-11T07:51:59.892Z,17.37
2023-03-11T07:54:33.792Z,16.42
2023-03-11T07:57:09.104Z,16.25
2023-03-11T07:59:42.634Z,18.30
2023-03-11T08:02:17.352Z,15.50
2023-03-11T08:04:51.309Z,17.50
2023-03-11T08:07:25.305Z,17.05
2023-03-11T08:09:59.680Z,16.65
2023-03-11T08:12:33.599Z,16.32
2023-03-11T08:15:08.175Z,18.77
2023-03-11T08:17:42.934Z,15.08
2023-03-11T08:20:16.499Z,12.60
2023-03-11T08:22:58.149Z,13.53
2023-03-11T08:25:27.340Z,14.55
2023-03-11T08:28:00.487Z,11.93
2023-03-11T08:30:34.644Z,17.57
2023-03-11T08:33:09.053Z,14.00
2023-03-11T08:35:42.897Z,18.32
2023-03-11T08:38:16.783Z,15.68
2023-03-11T08:40:50.016Z,16.25
2023-03-11T08:43:23.478Z,15.93
2023-03-11T08:45:56.853Z,14.75
2023-03-11T08:48:30.853Z,11.12
2023-03-11T08:51:04.211Z,14.40
2023-03-11T08:53:38.125Z,15.35
2023-03-11T08:56:12.420Z,18.20
2023-03-11T08:58:46.005Z,16.40
2023-03-11T09:01:20.525Z,16.30
2023-03-11T09:03:54.682Z,14.13
2023-03-11T09:09:01.355Z,18.42
2023-03-11T09:11:37.150Z,16.25
2023-03-11T09:14:11.364Z,12.15
2023-03-11T09:16:46.737Z,14.70
2023-03-11T09:19:21.662Z,19.65
2023-03-11T09:21:55.214Z,14.78
2023-03-11T09:24:28.585Z,11.40
2023-03-11T09:27:05.513Z,13.35
2023-03-11T09:29:40.681Z,11.73
2023-03-11T09:34:50.088Z,12.63
2023-03-11T09:37:23.737Z,8.03
2023-03-11T09:39:56.946Z,16.37
2023-03-11T09:42:46.861Z,11.05
2023-03-11T09:45:35.206Z,19.80
2023-03-11T09:48:25.818Z,14.53
2023-03-11T09:51:11.712Z,11.10
2023-03-11T09:53:47.271Z,13.55
2023-03-11T09:56:22.829Z,17.37
2023-03-11T09:59:06.062Z,9.65
2023-03-11T10:01:45.031Z,18.07
2023-03-11T10:04:46.197Z,16.77
2023-03-11T10:07:23.286Z,10.08
2023-03-11T10:10:01.257Z,12.60
2023-03-11T10:12:54.003Z,14.33
2023-03-11T10:15:34.865Z,16.67
2023-03-11T10:18:19.985Z,13.53
2023-03-11T10:21:15.915Z,14.75
2023-03-11T10:24:05.128Z,18.62
2023-03-11T10:26:48.870Z,16.02
2023-03-11T10:29:26.609Z,11.53
2023-03-11T10:32:16.610Z,12.40
2023-03-11T10:35:19.944Z,11.75
2023-03-11T10:38:03.329Z,11.05
2023-03-11T10:40:45.784Z,15.25
2023-03-11T10:43:38.540Z,11.90
2023-03-11T10:46:29.046Z,14.05
2023-03-11T10:49:02.763Z,34.15
2023-03-11T10:51:39.337Z,13.30
2023-03-11T10:54:26.758Z,23.87
2023-03-11T10:57:06.115Z,12.35
2023-03-11T10:59:52.834Z,15.65
2023-03-11T11:02:34.960Z,9.83
2023-03-11T11:05:24.712Z,13.58
2023-03-11T11:08:18.042Z,15.68
2023-03-11T11:10:55.733Z,12.95
2023-03-11T11:13:34.822Z,15.65
2023-03-11T11:16:21.345Z,12.45
2023-03-11T11:19:13.724Z,12.23
2023-03-11T11:21:52.666Z,13.00
2023-03-11T11:24:30.388Z,12.15
2023-03-11T11:27:22.262Z,12.93
2023-03-11T11:30:16.832Z,12.45
2023-03-11T11:32:52.246Z,14.50
2023-03-11T11:35:27.367Z,13.28
2023-03-11T11:38:05.624Z,11.73
2023-03-11T11:40:40.437Z,14.35
2023-03-11T11:43:40.146Z,17.37
2023-03-11T11:46:41.582Z,11.57
2023-03-11T11:49:33.561Z,17.12
2023-03-11T11:52:22.084Z,12.80
2023-03-11T11:55:02.388Z,15.28
2023-03-11T11:57:37.201Z,11.12
2023-03-11T12:00:21.407Z,11.63
2023-03-11T12:03:36.768Z,12.50
2023-03-11T12:06:32.646Z,12.45
2023-03-11T12:09:32.788Z,11.90
2023-03-11T12:12:43.953Z,15.45
2023-03-11T12:15:30.770Z,10.68
2023-03-11T12:18:07.369Z,13.98
2023-03-11T12:20:50.500Z,11.05
2023-03-11T12:23:43.245Z,11.83
2023-03-11T12:26:23.018Z,15.90
2023-03-11T12:29:06.247Z,16.45
2023-03-11T12:31:42.048Z,10.50
2023-03-11T12:34:17.891Z,12.05
2023-03-11T12:36:52.221Z,11.78
2023-03-11T12:39:36.362Z,16.55
2023-03-11T12:42:20.982Z,11.95
2023-03-11T12:44:54.285Z,12.80
2023-03-11T12:47:29.376Z,13.15
2023-03-11T12:50:15.611Z,12.63
2023-03-11T12:52:57.494Z,13.68
2023-03-11T12:55:35.404Z,8.55
2023-03-11T12:58:41.311Z,12.98
2023-03-11T13:01:32.175Z,13.90
2023-03-11T13:04:21.654Z,8.93
2023-03-11T13:07:15.956Z,10.28
2023-03-11T13:10:17.788Z,12.18
2023-03-11T13:12:54.230Z,8.45
2023-03-11T13:15:38.905Z,10.20
2023-03-11T13:18:30.809Z,9.15
2023-03-11T13:21:05.646Z,9.43
2023-03-11T13:23:40.812Z,8.98
2023-03-11T13:26:24.825Z,9.10
2023-03-11T13:29:39.526Z,7.95
2023-03-11T13:33:00.303Z,8.43
2023-03-11T13:36:01.811Z,6.72
2023-03-11T13:38:57.716Z,9.25
2023-03-11T13:41:37.504Z,15.25
2023-03-11T13:44:27.356Z,7.85
2023-03-11T13:47:14.409Z,7.35
2023-03-11T13:50:11.641Z,8.80
2023-03-11T13:52:54.775Z,7.97
2023-03-11T13:55:46.815Z,9.75
2023-03-11T13:58:29.534Z,9.93
2023-03-11T14:01:03.943Z,11.38
2023-03-11T14:03:44.155Z,9.73
2023-03-11T14:06:20.159Z,7.67
2023-03-11T14:08:58.858Z,8.48
2023-03-11T14:11:32.315Z,8.98
2023-03-11T14:14:10.957Z,8.43
2023-03-11T14:16:47.395Z,8.38
2023-03-11T14:19:22.398Z,8.48
2023-03-11T14:21:59.141Z,7.35
2023-03-11T14:24:33.840Z,12.28
2023-03-11T14:27:10.682Z,10.80
2023-03-11T14:29:45.810Z,10.80
2023-03-11T14:32:32.549Z,9.38
2023-03-11T14:35:21.197Z,7.47
2023-03-11T14:37:54.808Z,8.53
2023-03-11T14:40:42.095Z,10.80
2023-03-11T14:43:15.158Z,7.42
2023-03-11T14:45:48.539Z,8.75
2023-03-11T14:48:35.231Z,8.90
2023-03-11T14:51:25.113Z,10.70
2023-03-11T14:54:08.652Z,11.48
2023-03-11T14:56:43.644Z,8.88
2023-03-11T14:59:25.536Z,11.73
2023-03-11T15:02:02.875Z,9.70
2023-03-11T15:04:38.549Z,10.98
2023-03-11T15:07:11.669Z,7.90
2023-03-11T15:09:45.597Z,12.15
2023-03-11T15:12:43.363Z,9.65
2023-03-11T15:15:31.205Z,7.17
2023-03-11T15:18:04.985Z,9.48
2023-03-11T15:20:40.117Z,11.65
2023-03-11T15:23:17.916Z,8.55
2023-03-11T15:25:51.956Z,10.10
2023-03-11T15:28:30.766Z,9.35
2023-03-11T15:31:29.414Z,9.85
2023-03-11T15:34:22.530Z,12.30
2023-03-11T15:37:01.713Z,10.27
2023-03-11T15:39:39.682Z,16.25
2023-03-11T15:42:24.747Z,12.40
2023-03-11T15:45:20.952Z,10.05
2023-03-11T15:47:53.567Z,13.65
2023-03-11T15:50:43.050Z,11.93
2023-03-11T15:53:05.244Z,11.95
2023-03-11T15:55:40.386Z,12.78
2023-03-11T15:58:16.954Z,11.03
2023-03-11T16:00:55.294Z,13.32
2023-03-11T16:03:31.192Z,19.27
2023-03-11T16:06:03.254Z,15.53
2023-03-11T16:08:36.765Z,15.30
2023-03-11T16:11:13.813Z,20.85
2023-03-11T16:13:49.952Z,17.42
2023-03-11T16:16:23.490Z,22.73
2023-03-11T16:18:56.870Z,19.32
2023-03-11T16:21:36.803Z,19.20
2023-03-11T16:24:11.730Z,18.77
2023-03-11T16:26:45.279Z,16.80
2023-03-11T16:29:19.581Z,23.75
2023-03-11T16:31:54.946Z,22.27
2023-03-11T16:34:28.592Z,18.52
2023-03-11T16:37:01.965Z,19.00
2023-03-11T16:39:37.795Z,16.57
2023-03-11T16:42:11.122Z,18.70
2023-03-11T16:44:44.867Z,16.97
2023-03-11T16:47:18.294Z,17.00
2023-03-11T16:49:53.144Z,16.27
2023-03-11T16:52:26.604Z,18.17
2023-03-11T16:54:59.868Z,20.10
2023-03-11T16:57:33.498Z,18.60
2023-03-11T17:00:10.333Z,19.25
2023-03-11T17:02:45.361Z,18.07
2023-03-11T17:05:19.165Z,18.77
2023-03-11T17:07:59.564Z,14.35
2023-03-11T17:10:43.644Z,21.93
2023-03-11T17:13:19.045Z,18.65
2023-03-11T17:16:01.358Z,19.92
2023-03-11T17:18:35.154Z,20.12
2023-03-11T17:21:14.778Z,16.40
2023-03-11T17:23:47.703Z,15.30
2023-03-11T17:26:21.124Z,14.90
2023-03-11T17:28:54.654Z,19.27
2023-03-11T17:31:27.468Z,20.80
2023-03-11T17:34:01.791Z,17.98
2023-03-11T17:36:35.575Z,14.38
2023-03-11T17:39:08.536Z,15.03
2023-03-11T17:41:42.205Z,18.37
2023-03-11T17:44:15.741Z,14.23
2023-03-11T17:46:48.635Z,17.98
2023-03-11T17:49:24.660Z,22.85
2023-03-11T17:51:58.653Z,17.30
2023-03-11T17:54:32.743Z,20.48
2023-03-11T17:57:05.943Z,22.52
2023-03-11T17:59:39.258Z,17.92
2023-03-11T18:02:15.408Z,33.90
2023-03-11T18:04:54.205Z,21.60
2023-03-11T18:07:27.026Z,22.20
2023-03-11T18:10:00.461Z,19.93
2023-03-11T18:12:33.502Z,19.65
2023-03-11T18:15:10.656Z,19.30
2023-03-11T18:17:44.052Z,22.45
2023-03-11T18:20:17.375Z,20.05
2023-03-11T18:22:50.051Z,20.90
2023-03-11T18:25:22.846Z,21.85
2023-03-11T18:27:55.682Z,17.95
2023-03-11T18:30:28.575Z,21.75
2023-03-11T18:33:02.092Z,26.87
2023-03-11T18:35:35.126Z,20.68
2023-03-11T18:38:09.144Z,19.82
2023-03-11T18:40:43.217Z,15.63
2023-03-11T18:43:16.577Z,19.73
2023-03-11T18:45:50.006Z,22.60
2023-03-11T18:48:23.811Z,18.50
2023-03-11T18:50:57.456Z,23.77
2023-03-11T18:53:31.254Z,29.92
2023-03-11T18:56:08.670Z,18.90
2023-03-11T18:58:42.270Z,25.70
2023-03-11T19:02:27.862Z,21.73
2023-03-11T19:07:35.016Z,21.52
2023-03-11T19:10:11.544Z,23.90
2023-03-11T19:12:45.907Z,29.57
2023-03-11T19:15:19.818Z,17.80
2023-03-11T19:18:05.876Z,26.97
2023-03-11T19:20:30.865Z,17.75
2023-03-11T19:23:05.634Z,24.25
2023-03-11T19:25:39.393Z,17.00
2023-03-11T19:28:12.377Z,22.37
2023-03-11T19:30:45.560Z,24.12
2023-03-11T19:35:58.483Z,16.67
2023-03-11T19:38:32.590Z,26.05
2023-03-11T19:43:39.637Z,23.60
2023-03-11T19:46:20.234Z,24.27
2023-03-11T19:48:55.020Z,22.87
2023-03-11T19:51:32.963Z,23.38
2023-03-11T19:54:02.523Z,23.07
2023-03-11T19:56:36.092Z,18.73
2023-03-11T19:59:09.427Z,19.20
2023-03-11T20:01:45.502Z,21.67
2023-03-11T20:04:19.391Z,21.50
2023-03-11T20:06:53.426Z,27.98
2023-03-11T20:12:00.824Z,21.02
2023-03-11T20:14:34.696Z,17.42
2023-03-11T20:17:08.357Z,16.97
2023-03-11T20:19:41.847Z,19.45
2023-03-11T20:22:15.535Z,21.33
2023-03-11T20:24:50.337Z,19.12
2023-03-11T20:27:23.615Z,23.07
2023-03-11T20:29:57.689Z,19.52
2023-03-11T20:35:05.034Z,20.45
2023-03-11T20:37:39.172Z,18.30
2023-03-11T20:40:14.428Z,18.40
2023-03-11T20:42:48.330Z,22.00
2023-03-11T20:45:23.844Z,19.20
2023-03-11T20:47:57.685Z,25.15
2023-03-11T20:50:31.864Z,21.20
2023-03-11T20:53:06.163Z,20.75
2023-03-11T20:55:44.031Z,22.62
2023-03-11T20:58:16.885Z,18.32
2023-03-11T21:00:49.859Z,16.10
2023-03-11T21:03:23.224Z,21.82
2023-03-11T21:05:56.094Z,17.20
2023-03-11T21:08:28.972Z,15.80
2023-03-11T21:11:03.815Z,18.90
2023-03-11T21:13:37.056Z,24.67
2023-03-11T21:16:11.697Z,19.80
2023-03-11T21:21:20.513Z,18.73
2023-03-11T21:23:53.517Z,16.20
2023-03-11T21:26:26.433Z,18.65
2023-03-11T21:28:59.970Z,21.48
2023-03-11T21:31:33.188Z,18.12
2023-03-11T21:34:06.060Z,18.10
2023-03-11T21:36:39.877Z,18.87
2023-03-11T21:39:14.886Z,18.77
2023-03-11T21:41:47.880Z,26.87
2023-03-11T21:44:21.685Z,17.77
2023-03-11T21:46:54.778Z,21.85
2023-03-11T21:49:28.935Z,24.70
2023-03-11T21:52:02.512Z,25.93
2023-03-11T21:54:35.533Z,20.25
2023-03-11T21:57:09.084Z,20.75
2023-03-11T21:59:42.139Z,13.63
2023-03-11T22:02:17.763Z,19.15
2023-03-11T22:04:51.201Z,23.50
2023-03-11T22:07:24.411Z,18.93
2023-03-11T22:09:57.746Z,20.65
2023-03-11T22:12:31.370Z,16.93
2023-03-11T22:15:04.527Z,15.48
2023-03-11T22:17:39.352Z,15.58
2023-03-11T22:20:13.569Z,19.60
2023-03-11T22:22:46.683Z,17.67
2023-03-11T22:25:20.662Z,20.15
2023-03-11T22:27:53.578Z,16.70
2023-03-11T22:30:26.755Z,20.20
2023-03-11T22:33:01.103Z,20.12
2023-03-11T22:35:34.443Z,14.50
2023-03-11T22:38:09.656Z,17.95
2023-03-11T22:40:43.933Z,14.83
2023-03-11T22:43:17.061Z,16.02
2023-03-11T22:45:49.936Z,13.65
2023-03-11T22:48:23.049Z,14.60
2023-03-11T22:50:56.149Z,17.80
2023-03-11T22:53:29.103Z,24.52
2023-03-11T22:56:02.340Z,15.45
2023-03-11T22:58:35.855Z,12.60
2023-03-11T23:01:09.619Z,13.95
2023-03-11T23:03:44.522Z,19.92
2023-03-11T23:06:21.282Z,18.12
2023-03-11T23:08:54.458Z,12.95
2023-03-11T23:11:28.113Z,16.23
2023-03-11T23:14:01.660Z,15.63
2023-03-11T23:16:34.690Z,13.00
2023-03-11T23:19:09.116Z,13.08
2023-03-11T23:21:42.826Z,16.73
2023-03-11T23:24:15.548Z,13.85
2023-03-11T23:26:48.494Z,17.30
2023-03-11T23:29:21.758Z,11.20
2023-03-11T23:31:55.241Z,12.53
2023-03-11T23:34:29.473Z,13.22
2023-03-11T23:37:05.023Z,20.97
2023-03-11T23:42:24.500Z,12.15
2023-03-11T23:44:44.191Z,13.03
2023-03-11T23:47:17.545Z,13.00
2023-03-11T23:49:50.532Z,11.30
2023-03-11T23:52:23.720Z,19.57
2023-03-11T23:54:57.490Z,17.37
2023-03-11T23:57:30.464Z,15.20
